Pahoa, Hawaii
Current Conditions -  °F | °C
As of 3:21 PM on Wednesday 22 Oct 2014 (Local Time) from PHTO Reporting Station
Overcast Overcast  
Wind Chill: 77°   Ceiling: 2400
Heat Index: 79°   Visibility: 10mi
Dew Point: 71°   Wind: 15mph
Humidity: 82%   Direction: 110°ESE
Pressure: 29.98"   Gusts: NA
Location:  19.49°N, 154.94°W
Report Text: PHTO 230121Z 11013KT 10SM FEW011 SCT016 OVC024 25/22 A2998 RMK AO2 T02500217
Loading
Personal Weather Stations






























Interactive Weather Map
Tropical Storm Tracking
New forecast layout! Learn more

10-Day Weather Forecast

Advertisements
Track Severe Weather on mobile